Time;durP1;ratioP1;P1;durP2;ratioP2;P2;SDS_P1;SDS_P2;PMS_P1;PMS_P2;Temp;Humidity;BMP_temperature;BMP_pressure;BME280_temperature;BME280_humidity;BME280_pressure;Samples;Min_cycle;Max_cycle;Signal;HPM_P1;HPM_P2
2023/04/02 05:01:41;;;;;;;;;3.00;3.00;;;;;13.21;66.61;-17568.09;5457697;23;46582;-76
2023/04/02 05:04:19;;;;;;;;;4.00;4.00;;;;;13.21;66.76;-17568.09;5001384;28;45487;-78
2023/04/02 05:09:26;;;;;;;;;3.00;3.00;;;;;13.15;66.10;-17234.38;4994449;28;46614;-78
2023/04/02 05:14:36;;;;;;;;;5.33;4.67;;;;;13.19;66.48;-17235.28;5242568;23;67999;-78
2023/04/02 05:17:04;;;;;;;;;7.33;6.00;;;;;13.39;66.34;-17239.81;5016857;28;45478;-77
2023/04/02 05:19:44;;;;;;;;;6.33;3.67;;;;;13.33;66.57;-17238.31;5016818;28;46275;-78
2023/04/02 05:22:34;;;;;;;;;10.33;10.33;;;;;13.40;66.13;-17239.91;5016668;28;45491;-78
2023/04/02 05:25:18;;;;;;;;;5.33;3.33;;;;;13.40;66.02;-17239.91;5016228;28;45435;-78
2023/04/02 05:27:59;;;;;;;;;6.33;4.00;;;;;13.38;66.08;-16907.00;5016561;28;45714;-78
2023/04/02 05:30:27;;;;;;;;;4.00;4.00;;;;;13.38;65.74;-16906.88;5002443;28;47041;-78
2023/04/02 05:33:03;;;;;;;;;4.00;4.00;;;;;13.26;65.77;-16904.41;5016277;28;45445;-77
2023/04/02 05:35:35;;;;;;;;;4.67;4.67;;;;;13.19;65.98;-16902.81;5016800;28;45374;-78
2023/04/02 05:38:02;;;;;;;;;3.00;2.00;;;;;13.35;65.96;-16906.22;5016242;28;45368;-78
2023/04/02 05:40:44;;;;;;;;;3.33;3.33;;;;;13.35;65.82;-16906.22;5016021;28;46194;-78
2023/04/02 05:45:42;;;;;;;;;5.67;4.33;;;;;13.23;65.72;-16903.63;5287233;23;45371;-78
2023/04/02 05:48:21;;;;;;;;;4.67;3.67;;;;;13.25;65.76;-16904.06;5017050;28;45497;-78
2023/04/02 05:50:51;;;;;;;;;4.67;3.33;;;;;13.09;65.74;-16568.13;5001256;28;46196;-78
2023/04/02 05:53:25;;;;;;;;;2.33;2.33;;;;;13.31;66.06;-16572.84;5249758;23;45347;-78
2023/04/02 05:56:19;;;;;;;;;3.67;3.00;;;;;13.23;65.80;-16571.22;5015989;28;45526;-78
2023/04/02 05:59:29;;;;;;;;;2.00;2.00;;;;;13.29;66.11;-16572.41;5014191;28;45807;-77
2023/04/02 06:04:42;;;;;;;;;3.00;3.00;;;;;13.29;66.23;-16904.97;5014388;28;45385;-78
2023/04/02 06:07:20;;;;;;;;;6.00;4.00;;;;;13.28;66.52;-17237.25;5015453;28;45406;-78
2023/04/02 06:09:52;;;;;;;;;3.67;3.00;;;;;13.27;66.67;-17237.16;5243091;23;45525;-77
2023/04/02 06:12:34;;;;;;;;;2.33;2.00;;;;;13.26;66.50;-17236.78;5009798;28;45494;-78
2023/04/02 06:17:27;;;;;;;;;1.67;1.67;;;;;12.97;66.45;-16897.97;4980587;28;45364;-78
2023/04/02 06:19:56;;;;;;;;;2.00;1.00;;;;;13.17;66.33;-16902.25;4989340;28;45528;-78
2023/04/02 06:22:34;;;;;;;;;2.33;1.33;;;;;13.26;66.28;-16904.41;4982499;28;46591;-79
2023/04/02 06:25:22;;;;;;;;;3.67;3.00;;;;;13.27;66.00;-16904.50;4979667;28;45318;-81
2023/04/02 06:27:50;;;;;;;;;2.67;2.00;;;;;13.12;66.44;-16901.25;4979984;28;45564;-77
2023/04/02 06:30:24;;;;;;;;;3.33;3.33;;;;;13.26;66.14;-16904.41;5000250;28;45469;-78
2023/04/02 06:32:50;;;;;;;;;4.00;3.67;;;;;13.27;65.93;-16904.63;4997882;28;46337;-79
2023/04/02 06:35:16;;;;;;;;;4.00;3.00;;;;;13.20;66.04;-16570.53;4980204;28;45392;-79
2023/04/02 06:37:48;;;;;;;;;2.00;2.00;;;;;13.22;65.91;-16570.88;4980023;28;45417;-78
2023/04/02 06:40:30;;;;;;;;;2.67;1.67;;;;;13.01;66.19;-16566.47;4962875;28;45644;-79
2023/04/02 06:42:58;;;;;;;;;1.33;1.33;;;;;13.27;65.90;-16571.97;4979913;28;46662;-80
2023/04/02 06:45:40;;;;;;;;;2.33;2.33;;;;;13.28;65.89;-16572.31;4979952;28;45521;-80
2023/04/02 06:48:15;;;;;;;;;2.00;2.00;;;;;13.03;65.51;-16566.81;4979978;28;45500;-79
2023/04/02 06:50:51;;;;;;;;;3.00;2.00;;;;;13.11;65.71;-16568.56;4994650;28;45556;-79
2023/04/02 06:53:25;;;;;;;;;2.67;2.67;;;;;13.01;65.83;-16566.47;4997414;28;46908;-79
2023/04/02 06:56:04;;;;;;;;;2.67;2.67;;;;;13.29;65.98;-16572.41;4998554;28;45483;-79
2023/04/02 06:58:30;;;;;;;;;2.67;2.67;;;;;13.26;65.84;-16571.75;4999544;28;45507;-79
2023/04/02 07:00:56;;;;;;;;;2.67;2.67;;;;;13.21;65.81;-16570.66;4983176;28;45400;-79
2023/04/02 07:03:34;;;;;;;;;1.67;1.67;;;;;13.28;66.08;-16572.31;4980313;28;46991;-79
2023/04/02 07:06:01;;;;;;;;;2.33;2.33;;;;;13.13;65.92;-16569.00;4989996;28;45432;-79
2023/04/02 07:08:27;;;;;;;;;1.67;1.67;;;;;13.22;65.86;-16570.88;4993639;28;45539;-80
2023/04/02 07:10:52;;;;;;;;;2.00;1.67;;;;;13.15;65.59;-16569.44;4980483;28;45517;-80
2023/04/02 07:13:20;;;;;;;;;3.33;2.00;;;;;13.09;66.01;-16568.22;4973980;28;45467;-79
2023/04/02 07:15:49;;;;;;;;;3.00;3.00;;;;;13.28;65.83;-16572.31;4996286;28;45477;-80
2023/04/02 07:18:31;;;;;;;;;4.00;3.00;;;;;13.27;65.71;-16571.97;5018841;28;45336;-79
2023/04/02 07:20:57;;;;;;;;;3.00;3.00;;;;;13.18;66.13;-16902.59;5019302;28;45506;-79
2023/04/02 07:23:23;;;;;;;;;3.00;2.33;;;;;13.19;66.49;-16902.81;5004714;28;46974;-80
2023/04/02 07:25:49;;;;;;;;;2.67;2.67;;;;;13.27;66.16;-16904.63;4998488;28;45428;-79
2023/04/02 07:28:15;;;;;;;;;2.67;2.67;;;;;13.28;66.47;-16904.84;5001471;28;45514;-80
2023/04/02 07:30:41;;;;;;;;;3.67;2.33;;;;;13.18;66.72;-16902.47;4999063;28;45629;-79
2023/04/02 07:33:12;;;;;;;;;6.33;5.33;;;;;13.13;66.63;-16901.34;4999209;28;46123;-79
2023/04/02 07:35:38;;;;;;;;;4.00;4.00;;;;;13.01;66.43;-16898.75;4996909;28;45489;-80
2023/04/02 07:38:03;;;;;;;;;3.00;3.00;;;;;12.93;65.91;-16896.97;4999443;28;45513;-83
2023/04/02 07:40:28;;;;;;;;;3.67;3.67;;;;;13.27;66.26;-16904.63;4997497;28;45539;-83
2023/04/02 07:42:54;;;;;;;;;4.00;2.67;;;;;13.04;66.17;-16899.56;4993878;28;45936;-84
2023/04/02 07:45:19;;;;;;;;;6.33;4.00;;;;;13.17;66.48;-17234.72;5017680;28;45366;-83
2023/04/02 07:47:45;;;;;;;;;3.00;3.00;;;;;13.18;66.32;-16902.59;5017910;28;45351;-84
2023/04/02 07:50:10;;;;;;;;;4.00;4.00;;;;;13.06;66.39;-16900.00;5018422;28;45473;-83
2023/04/02 07:52:41;;;;;;;;;4.67;4.67;;;;;13.20;66.49;-16902.94;5005283;28;45490;-83
2023/04/02 07:55:11;;;;;;;;;2.67;2.67;;;;;13.28;66.12;-16904.75;5008180;28;46193;-83
2023/04/02 07:57:56;;;;;;;;;3.00;3.00;;;;;13.21;66.10;-16903.28;5016032;28;45367;-84
2023/04/02 08:00:23;;;;;;;;;2.00;2.00;;;;;12.91;65.87;-16896.63;5008240;28;45343;-83
2023/04/02 08:02:49;;;;;;;;;4.33;3.67;;;;;13.27;66.14;-16904.50;4997952;28;47102;-83
2023/04/02 08:05:15;;;;;;;;;2.33;2.00;;;;;13.09;66.39;-16900.69;4999645;28;45969;-83
2023/04/02 08:07:41;;;;;;;;;3.00;3.00;;;;;13.05;66.32;-16899.78;5015972;28;45474;-83
2023/04/02 08:10:09;;;;;;;;;6.00;3.00;;;;;13.26;66.36;-16904.41;5000462;28;45505;-82
2023/04/02 08:12:35;;;;;;;;;3.67;3.33;;;;;13.14;66.02;-16901.59;5005669;28;45516;-82
2023/04/02 08:15:00;;;;;;;;;8.67;5.33;;;;;13.07;66.04;-16900.22;4997536;28;45386;-83
2023/04/02 08:17:30;;;;;;;;;2.00;2.00;;;;;13.27;66.30;-16904.63;4980603;28;45581;-82
2023/04/02 08:20:02;;;;;;;;;3.00;3.00;;;;;13.27;65.90;-16571.97;4998205;28;45446;-83
2023/04/02 08:22:29;;;;;;;;;5.33;5.33;;;;;13.16;66.17;-16569.56;4997264;28;46874;-82
2023/04/02 08:24:55;;;;;;;;;5.67;4.00;;;;;13.27;65.84;-16572.09;4997673;28;45495;-83
2023/04/02 08:27:22;;;;;;;;;8.67;6.00;;;;;13.18;65.70;-16570.09;5001733;28;45456;-82
2023/04/02 08:29:47;;;;;;;;;6.67;6.67;;;;;13.28;65.86;-16572.19;5017807;28;45357;-83
2023/04/02 08:32:16;;;;;;;;;10.00;7.67;;;;;13.27;65.72;-16572.09;5017864;28;45415;-83
2023/04/02 08:34:43;;;;;;;;;3.33;3.33;;;;;13.22;65.72;-16238.34;4999588;28;46015;-83
2023/04/02 08:37:10;;;;;;;;;4.00;4.00;;;;;13.29;65.53;-16239.94;5012279;28;45523;-83
2023/04/02 08:39:36;;;;;;;;;6.00;6.00;;;;;12.98;65.48;-16233.28;4998186;28;45542;-83
2023/04/02 08:42:32;;;;;;;;;8.00;5.67;;;;;13.30;65.29;-15907.56;4992620;28;46221;-84
2023/04/02 08:45:05;;;;;;;;;5.67;4.00;;;;;13.30;65.29;-15907.44;4978026;28;45379;-83
2023/04/02 08:47:36;;;;;;;;;2.67;2.67;;;;;13.32;64.92;-15575.22;4993023;28;45494;-83
2023/04/02 08:50:36;;;;;;;;;3.33;2.00;;;;;13.27;64.64;-15574.19;5017153;28;45485;-83
2023/04/02 08:53:05;;;;;;;;;3.67;3.67;;;;;13.02;64.79;-15569.19;4977686;28;46152;-83
2023/04/02 08:55:41;;;;;;;;;5.00;4.00;;;;;13.36;64.83;-15575.91;4986905;28;45617;-83
2023/04/02 08:58:42;;;;;;;;;4.00;4.00;;;;;13.39;64.84;-15576.53;4990571;28;45348;-83
2023/04/02 09:01:20;;;;;;;;;5.33;4.67;;;;;13.12;64.94;-15571.22;4997504;28;45487;-83
2023/04/02 09:03:57;;;;;;;;;4.00;3.00;;;;;13.38;65.44;-15909.00;5049958;28;45390;-84
2023/04/02 09:06:23;;;;;;;;;3.00;3.00;;;;;13.38;64.99;-15909.13;5032852;28;45400;-85
2023/04/02 09:08:52;;;;;;;;;3.67;3.67;;;;;13.48;64.71;-15578.47;5033109;28;45766;-85
2023/04/02 09:11:22;;;;;;;;;5.33;3.00;;;;;13.48;64.81;-15578.47;5032947;28;45530;-82
2023/04/02 09:13:55;;;;;;;;;2.00;2.00;;;;;13.49;64.39;-15578.56;5026031;28;46352;-80
2023/04/02 09:16:42;;;;;;;;;6.00;5.00;;;;;13.47;64.67;-15578.25;5029598;28;45339;-81
2023/04/02 09:19:17;;;;;;;;;4.33;4.33;;;;;12.71;64.54;-15230.63;5028045;28;45448;-81
2023/04/02 09:21:51;;;;;;;;;5.33;5.00;;;;;13.42;64.72;-15577.25;5024713;28;45501;-83
2023/04/02 09:24:17;;;;;;;;;4.67;4.00;;;;;13.43;64.36;-15244.72;5031591;28;47883;-84
2023/04/02 09:26:48;;;;;;;;;3.67;3.67;;;;;13.37;64.71;-15243.53;5033008;28;45362;-93
2023/04/02 09:29:26;;;;;;;;;4.67;4.33;;;;;13.18;64.36;-15239.84;5019325;28;45533;-84
2023/04/02 09:32:14;;;;;;;;;4.33;4.00;;;;;13.13;64.41;-15238.84;5012644;28;45304;-84
2023/04/02 09:34:40;;;;;;;;;4.00;2.67;;;;;13.54;64.06;-15246.78;5031394;28;46538;-82
2023/04/02 09:37:26;;;;;;;;;5.00;3.00;;;;;13.54;64.21;-15246.78;5042924;28;46176;-80
2023/04/02 09:40:08;;;;;;;;;7.33;5.00;;;;;13.56;64.09;-14914.25;5033257;28;45569;-79
2023/04/02 09:42:37;;;;;;;;;9.00;7.33;;;;;13.19;63.85;-14574.72;5025756;28;45537;-83
2023/04/02 09:45:16;;;;;;;;;4.00;4.00;;;;;13.33;63.91;-14577.25;5036547;28;46607;-85
2023/04/02 09:47:41;;;;;;;;;3.67;3.67;;;;;13.34;64.04;-14577.44;5022352;28;45621;-85
2023/04/02 09:50:26;;;;;;;;;5.00;4.00;;;;;13.48;63.57;-14579.97;5041345;28;45417;-85
2023/04/02 09:52:51;;;;;;;;;4.67;3.67;;;;;13.10;64.10;-14573.13;5031580;28;45523;-84
2023/04/02 09:55:17;;;;;;;;;6.00;5.33;;;;;13.56;63.43;-14581.47;5027516;28;47454;-84
2023/04/02 09:57:45;;;;;;;;;6.33;5.00;;;;;13.56;63.49;-14581.38;5038238;28;45490;-84
2023/04/02 10:00:23;;;;;;;;;2.67;2.67;;;;;13.39;63.49;-14578.38;5024940;28;47423;-86
2023/04/02 10:03:24;;;;;;;;;3.67;3.67;;;;;13.56;63.42;-14248.59;5028187;28;45615;-83
2023/04/02 10:06:12;;;;;;;;;3.00;2.00;;;;;13.57;63.56;-14248.75;5043902;28;47267;-85
2023/04/02 10:09:27;;;;;;;;;4.00;4.00;;;;;13.13;63.49;-14240.94;5031154;28;47038;-86
2023/04/02 10:12:04;;;;;;;;;3.00;2.33;;;;;12.81;62.94;-13902.78;4999806;28;45601;-86
2023/04/02 10:14:39;;;;;;;;;3.00;2.00;;;;;12.42;62.92;-13563.63;5000327;28;46194;-85
2023/04/02 10:17:17;;;;;;;;;3.33;2.00;;;;;13.37;62.78;-13579.53;4993072;28;47006;-92
2023/04/02 10:23:13;;;;;;;;;;;;;;;;;;;;;
2023/04/02 10:25:54;;;;;;;;;3.50;3.50;;;;;12.72;62.32;-13236.06;4998437;28;62988;-91
2023/04/02 10:28:44;;;;;;;;;5.33;4.00;;;;;13.37;62.45;-13246.66;5032721;28;46494;-89
2023/04/02 10:31:10;;;;;;;;;2.67;2.67;;;;;13.63;62.71;-13250.88;5024712;28;45587;-86
2023/04/02 10:33:37;;;;;;;;;4.00;4.00;;;;;13.65;62.65;-13251.22;5032333;28;45657;-86
2023/04/02 10:36:36;;;;;;;;;3.67;3.67;;;;;13.51;62.48;-13248.91;5033209;28;45591;-90
2023/04/02 10:39:23;;;;;;;;;4.00;3.00;;;;;13.69;62.55;-13251.88;5035097;28;47851;-87
2023/04/02 10:41:56;;;;;;;;;5.33;4.00;;;;;13.70;62.55;-13251.94;5030147;28;46341;-89
2023/04/02 10:45:02;;;;;;;;;4.00;4.00;;;;;13.72;62.54;-13252.28;5052045;22;45542;-93
2023/04/02 10:47:50;;;;;;;;;4.00;4.00;;;;;13.73;62.41;-13252.44;5000371;28;45510;-96
2023/04/02 10:50:54;;;;;;;;;3.33;3.33;;;;;13.75;62.62;-13252.69;5000316;22;47685;-83
2023/04/02 10:53:30;;;;;;;;;5.33;5.33;;;;;13.60;62.41;-13250.38;4964523;28;45677;-83
2023/04/02 10:56:04;;;;;;;;;5.67;5.67;;;;;13.73;62.25;-13252.44;4971321;28;45677;-83
2023/04/02 10:58:34;;;;;;;;;7.33;7.33;;;;;13.78;62.45;-12920.06;4971285;28;45558;-84
2023/04/02 11:01:08;;;;;;;;;8.33;8.33;;;;;13.74;61.88;-12919.50;4973208;28;46187;-83
2023/04/02 11:04:15;;;;;;;;;8.00;6.33;;;;;13.57;62.03;-12916.78;4974799;28;45467;-83
2023/04/02 11:06:45;;;;;;;;;8.33;8.33;;;;;13.84;61.97;-12921.09;4973062;28;45750;-83
2023/04/02 11:09:21;;;;;;;;;1.33;1.33;;;;;13.77;61.85;-12920.00;4965696;28;45408;-84
2023/04/02 11:11:51;;;;;;;;;7.67;7.00;;;;;13.89;62.07;-12921.91;4973384;28;46592;-82
2023/04/02 11:14:23;;;;;;;;;8.33;6.67;;;;;13.76;61.85;-12919.75;4964743;28;45579;-84
2023/04/02 11:16:50;;;;;;;;;6.67;6.67;;;;;13.94;61.69;-12922.63;4974488;28;45459;-82
2023/04/02 11:19:16;;;;;;;;;7.67;7.67;;;;;13.95;61.72;-12922.78;4983395;28;46092;-85
2023/04/02 11:22:01;;;;;;;;;11.33;10.00;;;;;13.95;61.77;-12922.78;4963961;28;45615;-88
2023/04/02 11:24:31;;;;;;;;;12.00;9.33;;;;;13.93;61.75;-12589.31;4964882;28;45729;-83
2023/04/02 11:27:23;;;;;;;;;6.67;4.00;;;;;13.90;61.65;-12588.84;4988192;28;45522;-85
2023/04/02 11:30:19;;;;;;;;;7.67;7.00;;;;;13.96;61.55;-12589.63;5011438;28;45476;-85
2023/04/02 11:32:48;;;;;;;;;7.00;7.00;;;;;13.94;61.68;-12589.38;5007057;28;47346;-84
2023/04/02 11:35:31;;;;;;;;;4.67;4.67;;;;;13.95;61.78;-12589.53;5010371;28;45452;-83
2023/04/02 11:38:02;;;;;;;;;7.00;7.00;;;;;13.98;61.86;-12589.91;5014404;28;45465;-82
2023/04/02 11:40:50;;;;;;;;;7.67;7.67;;;;;13.96;61.88;-12589.63;5017426;28;45487;-83
2023/04/02 11:43:34;;;;;;;;;10.00;7.33;;;;;13.99;61.57;-12590.06;5004750;28;47175;-83
2023/04/02 11:46:14;;;;;;;;;8.33;6.33;;;;;13.99;61.72;-12256.78;4997697;28;45324;-83
2023/04/02 11:48:40;;;;;;;;;8.00;4.67;;;;;13.88;61.49;-12255.28;5015316;28;45484;-83
2023/04/02 11:51:21;;;;;;;;;9.00;8.33;;;;;13.98;61.08;-11923.31;5016276;28;45506;-83
2023/04/02 11:53:47;;;;;;;;;6.00;6.00;;;;;13.82;61.05;-11921.09;5015959;28;47268;-82
2023/04/02 11:56:26;;;;;;;;;9.33;6.67;;;;;13.96;61.23;-11923.03;5016146;28;45422;-82
2023/04/02 11:59:10;;;;;;;;;7.67;7.00;;;;;13.94;61.27;-11922.81;5016991;28;45514;-82
2023/04/02 12:01:38;;;;;;;;;4.00;4.00;;;;;13.94;61.25;-11922.81;5016880;28;45322;-83
2023/04/02 12:04:15;;;;;;;;;10.00;8.00;;;;;13.94;60.93;-11589.47;5015452;28;46467;-83
2023/04/02 12:06:47;;;;;;;;;4.00;4.00;;;;;13.95;61.01;-11589.63;5016772;28;45383;-83
2023/04/02 12:09:19;;;;;;;;;5.67;4.00;;;;;13.95;61.20;-11589.63;5015630;28;45382;-83
2023/04/02 12:11:46;;;;;;;;;7.67;5.00;;;;;13.87;61.15;-11588.50;5016305;28;45442;-83
2023/04/02 12:14:42;;;;;;;;;7.67;7.67;;;;;13.95;61.02;-11589.63;5006460;28;46685;-83
2023/04/02 12:17:28;;;;;;;;;7.33;6.33;;;;;13.96;61.13;-11589.75;5012354;28;45446;-86
2023/04/02 12:19:56;;;;;;;;;7.00;4.00;;;;;13.98;61.23;-11590.03;5020217;28;45465;-86
2023/04/02 12:22:26;;;;;;;;;4.67;3.67;;;;;13.99;61.34;-11590.09;5016022;28;45441;-88
2023/04/02 12:24:58;;;;;;;;;3.00;3.00;;;;;13.75;61.43;-11920.09;5016566;28;46659;-89
2023/04/02 12:27:28;;;;;;;;;5.67;4.33;;;;;13.98;61.24;-11923.31;5010691;28;45528;-87
2023/04/02 12:29:55;;;;;;;;;5.67;5.33;;;;;14.04;61.00;-11590.78;5014196;28;45812;-88
2023/04/02 12:32:23;;;;;;;;;5.00;4.33;;;;;14.03;61.39;-11924.03;5022183;28;45626;-88
2023/04/02 12:34:51;;;;;;;;;4.00;4.00;;;;;13.65;60.89;-11585.53;5015030;28;45769;-86
2023/04/02 12:37:34;;;;;;;;;5.00;4.00;;;;;13.93;61.31;-11589.41;5015573;28;45405;-88
2023/04/02 12:40:05;;;;;;;;;5.33;5.33;;;;;13.72;61.21;-11586.50;5008260;28;45510;-86
2023/04/02 12:42:31;;;;;;;;;4.00;4.00;;;;;14.05;61.03;-11590.94;5018776;28;45713;-87
2023/04/02 12:44:56;;;;;;;;;4.00;3.33;;;;;13.94;61.20;-11589.53;5011663;28;46487;-88
2023/04/02 12:47:22;;;;;;;;;11.67;7.67;;;;;14.05;61.29;-11590.94;5014601;28;45378;-88
2023/04/02 12:49:48;;;;;;;;;5.33;5.33;;;;;14.05;60.96;-11590.94;5013705;28;45598;-88
2023/04/02 12:52:16;;;;;;;;;8.67;7.00;;;;;14.03;61.14;-11590.72;5014573;28;45541;-89
2023/04/02 12:54:53;;;;;;;;;10.00;5.67;;;;;14.02;61.06;-11590.50;5015304;28;46523;-89
2023/04/02 12:57:38;;;;;;;;;7.67;5.67;;;;;14.01;61.00;-11257.03;5015364;28;45472;-87
2023/04/02 13:00:23;;;;;;;;;7.00;6.67;;;;;14.01;61.04;-11256.97;5015588;28;45469;-87
2023/04/02 13:02:58;;;;;;;;;6.33;6.33;;;;;13.99;60.86;-11256.72;5025376;28;45556;-87
2023/04/02 13:05:43;;;;;;;;;10.67;7.00;;;;;13.65;61.03;-11252.41;5016234;28;46689;-89
2023/04/02 13:08:26;;;;;;;;;7.67;5.33;;;;;14.20;60.47;-11259.50;5015849;28;45389;-88
2023/04/02 13:11:03;;;;;;;;;7.67;6.33;;;;;14.17;60.42;-11259.09;5013462;28;45741;-88
2023/04/02 13:13:33;;;;;;;;;6.00;6.00;;;;;13.77;60.79;-10920.56;5009469;28;45441;-87
2023/04/02 13:16:15;;;;;;;;;8.00;8.00;;;;;13.94;60.92;-10922.72;5015104;28;46408;-88
2023/04/02 13:18:42;;;;;;;;;5.67;5.33;;;;;13.92;60.76;-10922.53;5013567;28;45315;-86
2023/04/02 13:21:28;;;;;;;;;12.00;9.00;;;;;13.92;60.92;-10922.47;5024983;28;45334;-96
2023/04/02 13:23:54;;;;;;;;;7.00;7.00;;;;;13.70;61.23;-10919.81;5036526;28;45382;-93
2023/04/02 13:26:25;;;;;;;;;8.00;6.00;;;;;13.91;61.25;-10922.41;5034060;28;45251;-96
2023/04/02 13:29:01;;;;;;;;;7.00;7.00;;;;;13.72;61.42;-10920.06;5035920;28;45311;-96
2023/04/02 13:31:28;;;;;;;;;8.00;5.33;;;;;13.71;61.32;-11253.19;5036393;28;45173;-96
2023/04/02 13:33:53;;;;;;;;;5.67;4.33;;;;;13.84;61.20;-11254.88;5034780;28;45398;-96
2023/04/02 13:36:19;;;;;;;;;3.33;3.33;;;;;13.39;61.26;-10915.87;5069265;22;45426;-83
2023/04/02 13:38:45;;;;;;;;;3.00;3.00;;;;;13.26;61.23;-10914.34;4994056;28;45519;-83
2023/04/02 13:41:21;;;;;;;;;3.33;3.33;;;;;13.94;61.20;-10922.78;4995089;28;45831;-83
2023/04/02 13:50:42;;;;;;;;;2.00;2.00;;;;;13.91;60.54;-10589.00;3188712;22;45806;-88
2023/04/02 13:53:35;;;;;;;;;1.33;1.33;;;;;14.03;60.79;-10590.34;5035248;28;45327;-85
2023/04/02 13:56:03;;;;;;;;;3.67;3.67;;;;;12.59;60.54;-10573.22;5028402;28;45481;-85
2023/04/02 14:01:53;;;;;;;;;2.67;2.67;;;;;14.12;60.43;-10591.50;5333829;22;45740;-94
2023/04/02 14:04:30;;;;;;;;;2.00;2.00;;;;;13.96;60.38;-10589.50;4997042;28;45588;-91
2023/04/02 14:07:11;;;;;;;;;2.00;2.00;;;;;14.18;60.42;-10592.13;5001213;28;45481;-94
2023/04/02 14:09:55;;;;;;;;;3.00;2.00;;;;;14.18;60.12;-10592.13;5000645;28;46068;-92
2023/04/02 14:12:33;;;;;;;;;3.33;2.00;;;;;14.16;60.27;-10591.94;4996530;28;46163;-91
2023/04/02 14:15:32;;;;;;;;;3.67;3.67;;;;;14.17;60.23;-10592.06;5001877;28;45466;-96
2023/04/02 14:17:57;;;;;;;;;3.00;3.00;;;;;14.17;60.09;-10258.47;4986683;28;45511;-96
2023/04/02 14:20:35;;;;;;;;;2.67;2.67;;;;;14.14;59.82;-9924.59;5010921;28;46189;-86
2023/04/02 14:23:09;;;;;;;;;1.00;1.00;;;;;14.13;59.88;-9924.50;4995675;28;45944;-87
2023/04/02 14:25:53;;;;;;;;;2.67;2.33;;;;;14.10;60.07;-9924.16;5001878;28;45481;-92
2023/04/02 14:28:26;;;;;;;;;2.00;2.00;;;;;14.09;59.70;-9590.41;4998198;28;45829;-85
2023/04/02 14:31:26;;;;;;;;;5.00;3.67;;;;;14.07;59.95;-9590.25;5011653;28;46426;-87
2023/04/02 14:34:16;;;;;;;;;4.67;4.00;;;;;13.89;60.09;-9588.38;5008012;28;45215;-88
2023/04/02 14:37:06;;;;;;;;;5.33;3.00;;;;;14.03;60.18;-9589.78;5000267;28;45485;-86
2023/04/02 14:39:53;;;;;;;;;4.00;4.00;;;;;13.76;59.92;-8920.09;5001717;28;45347;-89
2023/04/02 14:42:31;;;;;;;;;5.33;5.33;;;;;13.82;60.16;-9254.22;4997480;28;48166;-88
2023/04/02 14:45:21;;;;;;;;;5.67;3.67;;;;;13.71;60.15;-8919.66;5004078;28;45373;-87
2023/04/02 14:47:53;;;;;;;;;3.67;3.67;;;;;13.91;59.94;-8921.50;4995525;28;45572;-85
2023/04/02 14:50:28;;;;;;;;;3.67;3.67;;;;;13.86;59.96;-8921.09;5002776;28;45503;-85
2023/04/02 14:52:59;;;;;;;;;3.00;3.00;;;;;13.90;59.73;-8921.41;4991312;28;45674;-85
2023/04/02 14:55:45;;;;;;;;;3.00;3.00;;;;;13.88;59.44;-8921.28;4998565;28;45941;-85
2023/04/02 14:58:19;;;;;;;;;6.33;4.67;;;;;13.88;59.35;-8254.09;5003779;28;45539;-86
2023/04/02 15:00:54;;;;;;;;;3.00;3.00;;;;;13.82;59.53;-8253.63;5012452;28;45604;-86
2023/04/02 15:03:33;;;;;;;;;4.00;4.00;;;;;13.85;59.48;-8253.88;5012028;28;46114;-87
2023/04/02 15:06:03;;;;;;;;;5.67;4.00;;;;;13.43;59.78;-8250.44;4987991;28;45482;-88
2023/04/02 15:08:29;;;;;;;;;8.33;7.33;;;;;13.82;59.01;-7586.41;5012871;28;45456;-88
2023/04/02 15:11:16;;;;;;;;;4.00;4.00;;;;;13.78;59.44;-7919.72;4983226;28;45909;-88
2023/04/02 15:13:55;;;;;;;;;6.00;3.00;;;;;13.65;59.32;-7585.22;4992037;28;47666;-88
2023/04/02 15:16:25;;;;;;;;;5.67;5.67;;;;;13.76;59.36;-7585.94;4997583;28;45390;-87
2023/04/02 15:19:12;;;;;;;;;7.00;5.33;;;;;13.56;59.27;-7918.00;5003924;28;46849;-86
2023/04/02 15:24:53;;;;;;;;;4.67;4.67;;;;;13.74;59.46;-7585.84;5472102;22;46603;-89
2023/04/02 15:27:36;;;;;;;;;7.00;4.00;;;;;13.73;59.29;-7585.78;5167941;22;46487;-89
2023/04/02 15:30:45;;;;;;;;;7.33;3.67;;;;;13.71;59.41;-7585.66;5009207;22;45519;-92
2023/04/02 15:33:54;;;;;;;;;7.33;5.33;;;;;13.69;59.35;-7251.94;5025305;22;45417;-91
2023/04/02 15:37:07;;;;;;;;;3.00;3.00;;;;;13.49;59.42;-7584.09;5036066;28;46738;-89
2023/04/02 15:43:35;;;;;;;;;6.33;6.33;;;;;12.43;59.55;-7243.66;5021402;22;45494;-92
2023/04/02 15:46:34;;;;;;;;;3.00;3.00;;;;;13.53;59.71;-7250.88;5020571;28;45547;-88
2023/04/02 15:49:15;;;;;;;;;5.00;3.00;;;;;13.51;59.77;-7250.72;5001418;28;46667;-89
2023/04/02 15:52:11;;;;;;;;;5.33;5.33;;;;;13.48;59.75;-6917.06;4993230;28;45483;-89
2023/04/02 15:55:12;;;;;;;;;8.50;7.00;;;;;13.46;59.60;-6916.91;4999363;28;45474;-92
2023/04/02 15:58:05;;;;;;;;;3.67;3.00;;;;;13.44;59.95;-6916.78;4936932;28;45515;-91
2023/04/02 16:00:39;;;;;;;;;8.33;6.33;;;;;12.59;59.90;-6911.69;4935816;28;47352;-92
2023/04/02 16:03:26;;;;;;;;;6.33;5.00;;;;;13.43;60.19;-6916.75;4938612;28;45407;-91
2023/04/02 16:06:22;;;;;;;;;6.67;6.67;;;;;13.41;60.22;-6916.63;4944129;28;45472;-89
2023/04/02 16:09:36;;;;;;;;;8.00;6.00;;;;;13.39;60.09;-6916.50;4930471;28;45610;-86
2023/04/02 16:12:28;;;;;;;;;5.67;5.67;;;;;12.43;60.29;-6910.69;4998426;23;46041;-87
2023/04/02 16:21:38;;;;;;;;;5.33;5.33;;;;;12.48;60.42;-7243.97;4924331;28;45599;-88
2023/04/02 16:24:13;;;;;;;;;7.00;7.00;;;;;12.98;60.20;-6914.03;4934501;28;46214;-85
2023/04/02 16:30:30;;;;;;;;;7.00;5.33;;;;;13.28;60.37;-6915.88;4878690;28;45456;-84
2023/04/02 16:39:37;;;;;;;;;3.33;3.33;;;;;12.70;59.86;-6579.22;4876055;29;45584;-90
2023/04/02 16:42:28;;;;;;;;;5.67;5.67;;;;;13.24;59.80;-6248.81;4877454;29;45570;-89
2023/04/02 16:45:33;;;;;;;;;6.00;6.00;;;;;13.17;60.16;-6248.44;4880533;29;45799;-90
2023/04/02 16:48:19;;;;;;;;;9.33;6.67;;;;;12.67;59.95;-6245.97;4888430;29;47111;-89
2023/04/02 16:51:35;;;;;;;;;7.33;7.33;;;;;11.67;59.59;-5908.34;4889311;29;45696;-89
2023/04/02 16:54:26;;;;;;;;;7.67;7.67;;;;;13.17;59.92;-6248.44;4882347;29;45535;-90
2023/04/02 16:57:32;;;;;;;;;;;;;;;;;;;;;
2023/04/02 17:00:01;;;;;;;;;10.00;8.00;;;;;13.14;60.08;-6248.28;4949232;28;74998;-90
2023/04/02 17:02:36;;;;;;;;;5.67;5.67;;;;;13.12;60.16;-6248.16;5033713;28;45710;-90
2023/04/02 17:05:40;;;;;;;;;9.00;8.00;;;;;11.94;59.70;-5909.53;5040242;28;45589;-90
2023/04/02 17:08:50;;;;;;;;;;;;;;;;;;;;;
2023/04/02 17:11:40;;;;;;;;;9.67;9.00;;;;;13.06;60.00;-5914.56;5001485;28;75672;-90
2023/04/02 17:14:37;;;;;;;;;15.33;9.33;;;;;13.05;60.27;-5914.50;5028440;28;45948;-91
2023/04/02 17:17:04;;;;;;;;;8.00;6.33;;;;;13.05;60.15;-5914.50;5044638;28;45569;-90
2023/04/02 17:19:31;;;;;;;;;4.67;4.67;;;;;12.98;60.05;-6247.47;5027524;28;45486;-92
2023/04/02 17:22:00;;;;;;;;;9.33;8.00;;;;;12.07;60.46;-6242.94;5014883;28;48288;-92
2023/04/02 17:24:43;;;;;;;;;9.67;8.67;;;;;12.51;60.64;-6245.13;5038379;28;45571;-89
2023/04/02 17:27:44;;;;;;;;;9.00;8.67;;;;;13.00;60.29;-6247.59;5038738;28;45544;-89
2023/04/02 17:30:36;;;;;;;;;8.67;8.67;;;;;12.13;60.46;-5910.41;5023791;28;45583;-85
2023/04/02 17:33:25;;;;;;;;;11.67;9.33;;;;;11.58;60.40;-5907.91;5028219;28;46427;-85
2023/04/02 17:36:21;;;;;;;;;11.33;10.67;;;;;12.96;60.51;-5914.06;5031414;28;45512;-85
2023/04/02 17:39:24;;;;;;;;;11.00;11.00;;;;;12.68;60.61;-5912.84;5024288;28;45503;-85
2023/04/02 17:42:09;;;;;;;;;11.67;11.67;;;;;12.92;60.44;-5913.91;5035289;28;45359;-85
2023/04/02 17:44:37;;;;;;;;;10.67;10.67;;;;;12.92;60.47;-5913.91;5021063;28;46491;-85
2023/04/02 17:47:13;;;;;;;;;12.67;9.00;;;;;11.91;60.68;-5909.41;5035825;28;45528;-86
2023/04/02 17:49:50;;;;;;;;;9.67;9.67;;;;;12.91;60.50;-5913.84;5038650;28;45540;-86
2023/04/02 17:52:20;;;;;;;;;8.67;8.67;;;;;11.65;60.71;-5908.22;5037996;28;45360;-91
2023/04/02 18:04:42;;;;;;;;;12.00;10.67;;;;;12.83;60.52;-5913.50;5065470;22;45477;-86
2023/04/02 18:07:23;;;;;;;;;11.33;8.67;;;;;12.81;60.76;-5913.44;5050685;28;47229;-81
2023/04/02 18:10:07;;;;;;;;;11.67;9.00;;;;;12.79;60.60;-5913.34;5055438;28;45501;-86
2023/04/02 18:12:52;;;;;;;;;8.33;7.33;;;;;12.51;60.64;-5912.09;5053942;28;45669;-85
2023/04/02 18:15:35;;;;;;;;;12.33;11.00;;;;;12.80;60.75;-5913.41;5055571;28;45704;-85
2023/04/02 18:18:13;;;;;;;;;10.33;9.00;;;;;12.58;60.94;-5912.38;5057184;28;46108;-85